Terminal Aerodrome Forecast
Issued by NWS Twin Cities, MN

Home | Current Version | Previous Version | Graphics & Text | Print | Product List | Glossary On
Versions: 1 2 3 4 5 6 7 8 9 10 11 12 13 14 15 16 17 18 19 20 21 22 23 24 25 26 27 28 29 30
000
FTUS43 KMPX 231728
TAFMSP
TAF
KMSP 231728Z 2318/2424 18010KT P6SM FEW030 SCT050 BKN250
     FM240000 15007KT P6SM SCT050 BKN200
     FM240600 13007KT P6SM SCT200
     FM241600 18011G17KT P6SM FEW050 SCT250=

USA.gov is the U.S. government's official web portal to all federal, state and local government web resources and services.